Time;durP1;ratioP1;P1;durP2;ratioP2;P2;SDS_P1;SDS_P2;PMS_P1;PMS_P2;Temp;Humidity;BMP_temperature;BMP_pressure;BME280_temperature;BME280_humidity;BME280_pressure;Samples;Min_cycle;Max_cycle;Signal;HPM_P1;HPM_P2
2021/07/28 00:43:15;;;;;;;16.30;10.50;;;;;;;19.11;79.49;100949.88;5787244;24;21329;31
2021/07/28 00:45:43;;;;;;;14.82;10.45;;;;;;;18.25;84.04;100946.72;4755070;30;20148;-61
2021/07/28 00:48:12;;;;;;;14.37;10.10;;;;;;;17.94;86.35;100953.25;4747703;30;20138;-60
2021/07/28 00:50:39;;;;;;;18.45;11.43;;;;;;;17.71;87.66;100940.97;4757682;29;20318;-64
2021/07/28 00:53:08;;;;;;;17.08;10.70;;;;;;;17.58;89.17;100941.69;4742996;30;20151;-61
2021/07/28 00:55:35;;;;;;;;;;;;;;;17.49;89.71;100936.69;4761145;30;20142;-59
2021/07/28 00:58:02;;;;;;;18.67;11.05;;;;;;;17.77;87.90;100942.84;4757600;30;20020;-62
2021/07/28 01:00:28;;;;;;;17.23;10.52;;;;;;;17.51;90.42;100942.63;4749834;29;20137;-61
2021/07/28 01:02:55;;;;;;;15.93;10.75;;;;;;;17.42;89.95;100935.78;4795264;24;20149;-62
2021/07/28 01:05:22;;;;;;;15.57;10.77;;;;;;;17.32;90.06;100936.09;4818392;29;20057;-62
2021/07/28 01:07:49;;;;;;;15.50;10.07;;;;;;;17.40;89.27;100935.97;4830990;29;20061;-62
2021/07/28 01:10:16;;;;;;;14.90;9.55;;;;;;;17.33;90.07;100927.97;4823901;29;20160;-61
2021/07/28 01:12:45;;;;;;;15.60;10.25;;;;;;;17.27;90.77;100928.72;4832466;29;20141;-62
2021/07/28 01:15:21;;;;;;;15.10;10.05;;;;;;;17.14;91.62;100929.38;4819776;29;20061;-59
2021/07/28 01:17:50;;;;;;;12.90;9.45;;;;;;;17.36;90.68;100930.22;4827451;29;20058;-60
2021/07/28 01:20:23;;;;;;;15.15;9.50;;;;;;;17.72;89.07;100920.56;4829928;29;20942;-59
2021/07/28 01:22:55;;;;;;;15.93;9.63;;;;;;;18.22;85.28;100920.56;4826934;29;20050;-60
2021/07/28 01:25:22;;;;;;;15.40;9.18;;;;;;;18.14;83.84;100921.53;4834045;29;20145;-59
2021/07/28 01:27:49;;;;;;;12.07;8.75;;;;;;;18.54;81.46;100913.81;4816325;29;20096;-60
2021/07/28 01:30:17;;;;;;;14.70;9.65;;;;;;;18.00;83.56;100919.81;4807766;29;20108;-60
2021/07/28 01:32:46;;;;;;;13.93;8.57;;;;;;;18.17;82.68;100918.50;4826480;29;20141;-62
2021/07/28 01:35:15;;;;;;;16.63;9.75;;;;;;;18.67;80.42;100911.22;4824697;29;20299;-59
2021/07/28 01:37:44;;;;;;;13.90;10.02;;;;;;;18.88;78.91;100920.94;4827011;29;20099;-59
2021/07/28 01:40:12;;;;;;;18.83;11.73;;;;;;;18.92;79.16;100921.38;4828116;29;20157;-62
2021/07/28 01:42:40;;;;;;;17.48;10.98;;;;;;;18.36;82.12;100915.13;4818492;29;20085;-60
2021/07/28 01:45:07;;;;;;;;;;;;;;;18.93;79.64;100913.22;4812959;29;20149;-61
2021/07/28 01:47:33;;;;;;;15.48;9.88;;;;;;;19.02;78.13;100913.03;4835977;29;19928;-61
2021/07/28 01:50:00;;;;;;;21.13;10.75;;;;;;;19.08;77.32;100913.03;4828052;29;20406;-61
2021/07/28 01:52:42;;;;;;;15.73;11.10;;;;;;;19.02;78.33;100911.19;4833639;29;20081;-61
2021/07/28 01:55:09;;;;;;;17.75;11.23;;;;;;;19.06;77.58;100906.28;4826558;29;20844;-60
2021/07/28 01:57:56;;;;;;;20.27;11.13;;;;;;;19.02;78.18;100911.19;4823329;29;20053;-61
2021/07/28 02:00:22;;;;;;;18.60;11.77;;;;;;;19.08;78.42;100905.06;4840993;29;20132;-61
2021/07/28 02:02:49;;;;;;;19.55;10.82;;;;;;;19.09;77.93;100912.03;4840038;29;20110;-61
2021/07/28 02:05:15;;;;;;;18.23;11.05;;;;;;;19.12;77.70;100903.63;4822428;29;20068;-61
2021/07/28 02:07:42;;;;;;;20.90;11.27;;;;;;;18.26;82.58;100912.00;4829681;29;20149;-61
2021/07/28 02:10:09;;;;;;;19.15;10.85;;;;;;;18.70;80.93;100912.66;4823512;29;20149;-61
2021/07/28 02:12:36;;;;;;;14.82;9.27;;;;;;;18.79;79.38;100900.84;4824776;29;20118;-61
2021/07/28 02:15:03;;;;;;;16.98;9.77;;;;;;;18.41;80.77;100909.25;4832850;29;20101;-61
2021/07/28 02:17:45;;;;;;;20.42;11.02;;;;;;;18.94;79.31;100908.69;4828359;29;20830;-61
2021/07/28 02:20:12;;;;;;;20.48;10.57;;;;;;;18.00;83.24;100906.53;4822225;29;20092;-60
2021/07/28 02:22:39;;;;;;;17.13;9.98;;;;;;;17.44;87.30;100912.56;4824072;29;20140;-60
2021/07/28 02:25:05;;;;;;;18.90;10.10;;;;;;;17.17;89.59;100914.94;4830667;29;20140;-61
2021/07/28 02:27:32;;;;;;;17.20;10.88;;;;;;;17.00;92.21;100904.56;4824907;29;20637;-60
2021/07/28 02:29:58;;;;;;;16.35;11.68;;;;;;;16.94;93.03;100912.44;4827857;29;20314;-61
2021/07/28 02:32:47;;;;;;;15.02;8.55;;;;;;;16.88;92.58;100907.91;4828588;29;20060;-60
2021/07/28 02:35:14;;;;;;;20.75;12.27;;;;;;;16.81;93.74;100905.13;4827294;29;20124;-62
2021/07/28 02:37:42;;;;;;;18.65;10.77;;;;;;;16.73;93.92;100906.03;4832005;29;20089;-61
2021/07/28 02:40:11;;;;;;;20.30;11.75;;;;;;;16.72;94.76;100900.91;4814479;29;20942;-61
2021/07/28 02:42:41;;;;;;;15.50;9.63;;;;;;;16.71;94.82;100900.09;4833796;29;20494;-61
2021/07/28 02:45:21;;;;;;;19.27;10.80;;;;;;;17.19;93.23;100905.81;4828367;29;20429;-61
2021/07/28 02:47:48;;;;;;;17.60;9.90;;;;;;;17.70;87.68;100896.91;4824433;29;20069;-61
2021/07/28 02:50:15;;;;;;;12.27;8.50;;;;;;;18.10;85.15;100891.91;4826520;29;20144;-61
2021/07/28 02:52:41;;;;;;;19.75;9.63;;;;;;;17.26;89.03;100900.56;4819878;29;20596;-60
2021/07/28 02:55:08;;;;;;;18.02;10.60;;;;;;;17.95;85.93;100899.16;4835266;29;20140;-61
2021/07/28 02:57:36;;;;;;;19.30;11.35;;;;;;;18.23;84.72;100904.47;4826736;29;20077;-60
2021/07/28 03:00:07;;;;;;;18.10;11.20;;;;;;;17.84;86.95;100894.34;4834265;29;20054;-61
2021/07/28 03:02:35;;;;;;;19.95;10.93;;;;;;;17.33;89.58;100898.81;4824281;29;20111;-60
2021/07/28 03:05:02;;;;;;;16.13;10.80;;;;;;;17.07;91.52;100904.66;4820305;29;20145;-61
2021/07/28 03:07:28;;;;;;;17.42;8.88;;;;;;;17.75;88.35;100899.78;4823586;29;20428;-60
2021/07/28 03:09:55;;;;;;;17.25;10.73;;;;;;;18.11;85.69;100893.56;4831629;29;20544;-61
2021/07/28 03:12:22;;;;;;;21.95;11.57;;;;;;;18.33;84.36;100902.25;4823090;29;20050;-61
2021/07/28 03:14:48;;;;;;;14.93;9.77;;;;;;;18.40;83.72;100901.47;4824731;29;20064;-61
2021/07/28 03:17:16;;;;;;;21.77;11.63;;;;;;;18.56;82.77;100893.19;4831037;29;20153;-61
2021/07/28 03:19:42;;;;;;;19.55;11.27;;;;;;;18.55;82.37;100903.00;4823820;29;20137;-60
2021/07/28 03:22:09;;;;;;;24.85;12.32;;;;;;;18.47;83.31;100899.69;4822419;29;20491;-61
2021/07/28 03:24:35;;;;;;;19.48;11.65;;;;;;;18.54;82.66;100903.19;4829379;29;20089;-59
2021/07/28 03:27:02;;;;;;;15.10;10.02;;;;;;;18.63;81.55;100904.66;4830649;29;20426;-61
2021/07/28 03:29:28;;;;;;;19.77;11.57;;;;;;;18.70;81.27;100897.56;4819499;29;20061;-60
2021/07/28 03:31:55;;;;;;;18.38;11.32;;;;;;;18.72;81.16;100900.00;4825325;29;20546;-61
2021/07/28 03:34:21;;;;;;;16.95;11.43;;;;;;;17.72;85.33;100899.34;4833970;29;20064;-61
2021/07/28 03:36:48;;;;;;;15.73;10.65;;;;;;;17.20;89.37;100910.06;4827241;29;20173;-61
2021/07/28 03:39:14;;;;;;;20.58;10.82;;;;;;;17.04;91.81;100904.22;4830182;29;20149;-60
2021/07/28 03:42:03;;;;;;;16.10;11.43;;;;;;;17.45;91.00;100899.13;4823876;29;20092;-61
2021/07/28 03:44:30;;;;;;;16.50;10.88;;;;;;;17.15;91.19;100898.38;4826397;29;20065;-61
2021/07/28 03:46:57;;;;;;;17.10;11.43;;;;;;;17.83;87.38;100898.00;4820740;29;21006;-60
2021/07/28 03:49:23;;;;;;;15.05;10.68;;;;;;;17.19;90.50;100905.00;4834346;29;20145;-61
2021/07/28 03:51:50;;;;;;;18.65;11.10;;;;;;;17.36;90.09;100898.41;4829472;29;20153;-61
2021/07/28 03:54:25;;;;;;;18.13;10.88;;;;;;;16.96;92.36;100903.28;4825220;29;20530;-60
2021/07/28 03:56:52;;;;;;;16.50;11.00;;;;;;;17.38;90.42;100896.38;4832329;29;20145;-61
2021/07/28 03:59:19;;;;;;;14.57;9.80;;;;;;;17.49;89.70;100892.41;4811733;29;20437;-61
2021/07/28 04:01:45;;;;;;;21.80;11.63;;;;;;;17.25;90.61;100888.31;4832779;29;20058;-60
2021/07/28 04:04:12;;;;;;;16.92;9.98;;;;;;;17.01;93.33;100889.47;4825117;29;20407;-60
2021/07/28 04:06:38;;;;;;;17.70;9.90;;;;;;;16.90;93.78;100903.22;4834024;29;20144;-60
2021/07/28 04:09:05;;;;;;;16.02;9.90;;;;;;;16.84;94.77;100888.06;4824406;29;20542;-60
2021/07/28 04:11:31;;;;;;;16.17;10.10;;;;;;;17.02;92.77;100879.72;4829021;29;20118;-60
2021/07/28 04:13:58;;;;;;;22.95;11.57;;;;;;;17.22;92.73;100890.53;4829404;29;20053;-60
2021/07/28 04:16:24;;;;;;;15.65;9.10;;;;;;;17.02;93.45;100888.47;4823089;29;20106;-61
2021/07/28 04:18:51;;;;;;;14.52;9.32;;;;;;;16.94;94.61;100878.00;4833830;29;20054;-62
2021/07/28 04:21:17;;;;;;;19.45;10.55;;;;;;;17.44;91.44;100884.19;4820144;29;20181;-62
2021/07/28 04:24:12;;;;;;;18.13;9.60;;;;;;;17.23;91.73;100890.34;4830501;29;20200;-62
2021/07/28 04:26:38;;;;;;;17.95;9.85;;;;;;;17.03;93.36;100887.47;4810702;29;20528;-62
2021/07/28 04:29:05;;;;;;;14.88;10.10;;;;;;;17.24;93.21;100884.03;4828830;29;20054;-61
2021/07/28 04:31:31;;;;;;;17.13;10.30;;;;;;;17.79;89.87;100881.66;4826058;29;20054;-61
2021/07/28 04:33:58;;;;;;;19.52;10.90;;;;;;;17.96;88.45;100884.88;4828476;29;20057;-61
2021/07/28 04:36:27;;;;;;;17.65;10.40;;;;;;;18.08;87.21;100879.84;4831450;29;20610;-61
2021/07/28 04:38:53;;;;;;;16.00;9.98;;;;;;;17.83;88.84;100882.91;4820662;29;20057;-61
2021/07/28 04:41:20;;;;;;;16.52;11.30;;;;;;;17.29;92.21;100888.75;4813999;29;20137;-61
2021/07/28 04:43:47;;;;;;;14.95;9.55;;;;;;;17.27;93.54;100885.47;4821375;29;20054;-61
2021/07/28 04:46:13;;;;;;;14.90;10.38;;;;;;;17.60;91.41;100885.78;4816183;29;20065;-60
2021/07/28 04:48:40;;;;;;;15.95;10.05;;;;;;;17.44;91.79;100886.03;4827204;29;20073;-61
2021/07/28 04:51:06;;;;;;;18.02;10.48;;;;;;;17.22;93.97;100887.88;4829661;29;20625;-61
2021/07/28 04:53:58;;;;;;;16.60;11.02;;;;;;;17.72;91.87;100883.41;4807497;29;20121;-61
2021/07/28 04:56:25;;;;;;;18.52;11.52;;;;;;;17.76;91.30;100892.66;4821293;29;20653;-61
2021/07/28 04:58:51;;;;;;;14.60;10.30;;;;;;;17.55;91.38;100885.53;4832985;29;20828;-61
2021/07/28 05:01:17;;;;;;;20.15;11.18;;;;;;;17.56;92.41;100880.06;4826494;29;20141;-60
2021/07/28 05:03:44;;;;;;;19.88;12.43;;;;;;;17.76;90.80;100882.06;4817903;29;20054;-61
2021/07/28 05:06:17;;;;;;;18.52;11.88;;;;;;;18.06;90.14;100880.03;4807468;29;20955;-61
2021/07/28 05:08:43;;;;;;;17.88;11.45;;;;;;;18.12;88.72;100878.44;4827923;29;20510;-61
2021/07/28 05:11:10;;;;;;;19.27;11.05;;;;;;;18.14;88.02;100877.22;4819139;29;20126;-61
2021/07/28 05:13:37;;;;;;;20.35;11.70;;;;;;;17.59;92.08;100878.84;4833459;29;20129;-61
2021/07/28 05:16:03;;;;;;;18.13;11.20;;;;;;;17.79;91.93;100874.50;4831276;29;20558;-61
2021/07/28 05:18:33;;;;;;;18.80;11.73;;;;;;;17.56;92.93;100876.56;4813810;29;20230;-61
2021/07/28 05:21:00;;;;;;;19.90;11.95;;;;;;;17.43;94.80;100879.13;4827266;29;20141;-61
2021/07/28 05:23:26;;;;;;;18.25;11.25;;;;;;;18.08;90.23;100877.19;4819341;29;20089;-61
2021/07/28 05:25:53;;;;;;;19.67;12.00;;;;;;;18.37;88.50;100873.50;4832718;29;20058;-61
2021/07/28 05:28:19;;;;;;;19.67;10.98;;;;;;;18.26;88.85;100877.50;4823459;29;20122;-60
2021/07/28 05:30:45;;;;;;;21.77;12.35;;;;;;;17.66;91.99;100882.38;4832346;29;20072;-61
2021/07/28 05:33:12;;;;;;;17.90;11.75;;;;;;;17.42;94.40;100880.91;4824560;29;20133;-61
2021/07/28 05:35:39;;;;;;;20.30;12.95;;;;;;;18.12;91.77;100873.94;4828086;29;20444;-61
2021/07/28 05:38:06;;;;;;;17.53;12.63;;;;;;;18.55;88.49;100881.75;4831699;29;20526;-61
2021/07/28 05:40:32;;;;;;;17.77;11.77;;;;;;;18.48;88.23;100880.88;4819564;29;20672;-61
2021/07/28 05:42:59;;;;;;;18.67;11.85;;;;;;;18.60;88.47;100880.31;4831284;29;20054;-61
2021/07/28 05:45:26;;;;;;;19.65;12.98;;;;;;;18.72;86.52;100884.06;4822304;29;20152;-61
2021/07/28 05:48:11;;;;;;;18.55;11.73;;;;;;;18.89;85.93;100880.03;4824494;29;20443;-61
2021/07/28 05:50:39;;;;;;;20.50;12.20;;;;;;;18.95;85.13;100879.28;4818524;29;20054;-61
2021/07/28 05:53:05;;;;;;;17.57;12.33;;;;;;;18.93;84.93;100888.44;4827777;29;20104;-61
2021/07/28 05:55:31;;;;;;;22.17;12.75;;;;;;;19.08;84.77;100880.31;4830805;29;20384;-61
2021/07/28 05:57:59;;;;;;;22.65;12.75;;;;;;;19.03;85.34;100880.09;4809755;29;20503;-61
2021/07/28 06:00:26;;;;;;;17.57;12.60;;;;;;;19.17;84.97;100884.44;4829769;29;20058;-60
2021/07/28 06:02:53;;;;;;;20.33;12.43;;;;;;;18.73;86.50;100875.88;4819654;29;20385;-61
2021/07/28 06:05:20;;;;;;;18.40;11.40;;;;;;;18.51;89.78;100877.84;4828527;29;20106;-61
2021/07/28 06:07:46;;;;;;;21.38;13.07;;;;;;;18.70;87.20;100886.91;4825820;29;20100;-61
2021/07/28 06:10:14;;;;;;;19.60;13.32;;;;;;;18.09;91.24;100882.31;4813860;29;20097;-62
2021/07/28 06:12:41;;;;;;;21.27;13.50;;;;;;;17.98;93.25;100885.50;4831278;29;20554;-60
2021/07/28 06:15:08;;;;;;;22.08;13.35;;;;;;;17.84;94.21;100883.75;4820322;29;20565;-61
2021/07/28 06:17:40;;;;;;;17.85;13.73;;;;;;;17.96;95.24;100883.03;4824137;29;20465;-61
2021/07/28 06:20:07;;;;;;;22.13;14.20;;;;;;;18.38;91.80;100881.25;4821145;29;20485;-62
2021/07/28 06:22:35;;;;;;;20.45;14.73;;;;;;;18.74;88.59;100868.75;4825391;29;20054;-61
2021/07/28 06:25:01;;;;;;;19.70;13.55;;;;;;;18.56;89.74;100878.06;4824778;29;20822;-61
2021/07/28 06:27:28;;;;;;;24.60;14.73;;;;;;;18.19;92.83;100876.66;4833469;29;20053;-61
2021/07/28 06:29:55;;;;;;;20.40;13.90;;;;;;;18.17;93.29;100876.03;4821026;29;20537;-61
2021/07/28 06:32:22;;;;;;;19.52;13.70;;;;;;;18.76;88.88;100878.16;4830238;29;20471;-61
2021/07/28 06:34:48;;;;;;;22.52;13.85;;;;;;;18.71;88.43;100890.38;4834437;29;20054;-61
2021/07/28 06:37:14;;;;;;;25.25;15.57;;;;;;;18.63;90.42;100893.22;4828847;29;20181;-62
2021/07/28 06:39:41;;;;;;;23.80;15.82;;;;;;;18.40;93.44;100885.53;4834676;29;20065;-61
2021/07/28 06:42:07;;;;;;;20.98;15.10;;;;;;;19.22;88.52;100891.81;4828975;29;20433;-61
2021/07/28 06:44:34;;;;;;;19.75;14.10;;;;;;;18.67;91.10;100889.97;4821459;29;20064;-61
2021/07/28 06:47:07;;;;;;;23.45;14.32;;;;;;;19.08;89.73;100878.47;4817912;29;20168;-61
2021/07/28 06:49:33;;;;;;;21.00;15.45;;;;;;;19.44;86.73;100877.28;4834701;29;20058;-61
2021/07/28 06:51:59;;;;;;;25.67;15.55;;;;;;;19.45;86.59;100883.44;4833353;29;20137;-61
2021/07/28 06:54:26;;;;;;;22.70;15.45;;;;;;;19.09;88.60;100884.59;4831003;29;20057;-61
2021/07/28 06:56:54;;;;;;;19.15;15.40;;;;;;;19.16;85.88;100880.94;4830279;29;20114;-61
2021/07/28 06:59:24;;;;;;;25.15;15.05;;;;;;;19.09;86.57;100880.13;4821070;29;20134;-62
2021/07/28 07:02:04;;;;;;;19.60;14.65;;;;;;;18.85;88.82;100893.94;4827054;29;20065;-60
2021/07/28 07:04:31;;;;;;;17.95;13.73;;;;;;;19.39;84.86;100889.59;4825856;29;20058;-63
2021/07/28 07:06:58;;;;;;;18.67;12.70;;;;;;;19.47;84.03;100887.53;4834439;29;20163;-61
2021/07/28 07:09:24;;;;;;;23.17;13.93;;;;;;;19.12;86.51;100890.34;4821655;29;20368;-60
2021/07/28 07:11:51;;;;;;;17.67;13.68;;;;;;;18.75;89.13;100895.09;4831194;29;20518;-61
2021/07/28 07:14:17;;;;;;;19.15;13.57;;;;;;;19.40;84.54;100899.19;4830823;29;20058;-60
2021/07/28 07:16:44;;;;;;;22.88;13.88;;;;;;;19.78;83.34;100899.47;4813491;29;20483;-61
2021/07/28 07:19:10;;;;;;;22.00;13.60;;;;;;;19.50;84.00;100895.13;4834862;29;20409;-60
2021/07/28 07:21:37;;;;;;;17.15;12.85;;;;;;;19.71;82.62;100895.94;4820913;29;20145;-62
2021/07/28 07:24:04;;;;;;;19.50;13.15;;;;;;;19.95;81.65;100891.84;4830354;29;20089;-62
2021/07/28 07:26:30;;;;;;;20.33;12.68;;;;;;;20.06;80.18;100891.22;4822712;29;20069;-62
2021/07/28 07:29:03;;;;;;;15.43;10.95;;;;;;;19.24;83.14;100893.22;4826187;29;20150;-62
2021/07/28 07:31:29;;;;;;;18.85;10.98;;;;;;;19.07;83.86;100883.97;4822793;29;20058;-62
2021/07/28 07:33:56;;;;;;;20.45;11.80;;;;;;;19.11;84.66;100890.53;4826354;29;20502;-63
2021/07/28 07:36:23;;;;;;;17.25;11.57;;;;;;;19.36;83.05;100894.25;4831937;29;20184;-60
2021/07/28 07:38:54;;;;;;;17.98;10.85;;;;;;;19.65;79.87;100892.25;4820904;29;20079;-61
2021/07/28 07:41:24;;;;;;;13.73;9.73;;;;;;;19.99;78.84;100890.41;4821244;29;20535;-61
2021/07/28 07:44:18;;;;;;;14.65;9.25;;;;;;;19.90;75.90;100887.16;4827418;29;20133;-61
2021/07/28 07:47:10;;;;;;;12.60;8.20;;;;;;;19.35;78.07;100881.19;4833896;29;20055;-61
2021/07/28 07:49:59;;;;;;;12.90;8.07;;;;;;;19.86;76.22;100882.47;4829791;29;20077;-61
2021/07/28 07:52:54;;;;;;;11.43;8.10;;;;;;;19.02;78.76;100891.75;4832140;29;20054;-61
2021/07/28 07:55:53;;;;;;;13.38;8.15;;;;;;;19.70;75.79;100886.34;4829443;29;20166;-61
2021/07/28 07:58:38;;;;;;;14.45;8.20;;;;;;;19.78;75.54;100879.97;4834687;29;20065;-61
2021/07/28 08:01:29;;;;;;;13.40;7.68;;;;;;;20.16;76.63;100893.47;4826125;29;20093;-61
2021/07/28 08:04:24;;;;;;;13.15;7.72;;;;;;;19.91;74.41;100887.97;4830668;29;20054;-63
2021/07/28 08:07:13;;;;;;;13.15;7.93;;;;;;;20.04;74.55;100889.81;4823096;29;20057;-62
2021/07/28 08:10:04;;;;;;;14.93;7.25;;;;;;;20.29;74.40;100887.31;4829684;29;20094;-60
2021/07/28 08:12:58;;;;;;;13.93;7.20;;;;;;;19.38;75.14;100896.72;4829068;29;20077;-62
2021/07/28 08:15:50;;;;;;;10.30;6.40;;;;;;;19.32;74.57;100885.06;4834594;29;20089;-62
2021/07/28 08:18:42;;;;;;;14.57;6.72;;;;;;;19.29;75.50;100892.66;4827717;29;20067;-62
2021/07/28 08:21:34;;;;;;;11.93;7.13;;;;;;;19.42;74.83;100892.63;4831484;29;20081;-62
2021/07/28 08:24:25;;;;;;;12.25;6.57;;;;;;;19.20;77.47;100899.97;4827971;29;20053;-60
2021/07/28 08:27:17;;;;;;;9.63;5.55;;;;;;;19.71;73.00;100896.78;4833965;29;20555;-62
2021/07/28 08:30:09;;;;;;;11.27;6.45;;;;;;;20.39;70.26;100887.69;4820712;29;20142;-62
2021/07/28 08:33:00;;;;;;;10.63;5.63;;;;;;;20.62;69.52;100883.72;4834031;29;20161;-62
2021/07/28 08:35:55;;;;;;;10.48;5.70;;;;;;;21.07;66.14;100875.69;4827758;29;20942;-61
2021/07/28 08:38:43;;;;;;;11.57;5.47;;;;;;;21.08;67.48;100888.00;4833789;29;20062;-63
2021/07/28 08:41:38;;;;;;;;;;;;;;;21.71;64.18;100879.97;4829220;29;20064;-63
2021/07/28 08:44:31;;;;;;;6.88;4.50;;;;;;;22.39;63.70;100874.84;4833738;29;20348;-63
2021/07/28 08:47:24;;;;;;;13.40;5.20;;;;;;;22.31;61.65;100867.94;4828275;29;20149;-63
2021/07/28 08:50:13;;;;;;;8.57;4.72;;;;;;;22.65;60.31;100857.66;4835841;29;20057;-63
2021/07/28 08:53:07;;;;;;;8.60;4.82;;;;;;;22.99;58.87;100868.69;4828958;29;20049;-63
2021/07/28 08:56:03;;;;;;;9.38;4.97;;;;;;;22.82;58.10;100861.31;4836407;29;20054;-62
2021/07/28 08:58:49;;;;;;;9.35;4.72;;;;;;;22.61;58.80;100872.50;4834191;29;20089;-62
2021/07/28 09:01:43;;;;;;;7.47;3.83;;;;;;;22.48;59.20;100868.97;4833276;29;20100;-62
2021/07/28 09:04:35;;;;;;;10.55;3.97;;;;;;;22.20;58.53;100868.63;4830877;29;20149;-62
2021/07/28 09:10:57;;;;;;;6.25;3.60;;;;;;;21.92;60.47;100872.63;4827152;29;20076;-62
2021/07/28 09:13:32;;;;;;;10.25;4.50;;;;;;;21.81;60.19;100873.34;4830547;29;20138;-62
2021/07/28 09:16:17;;;;;;;9.65;4.55;;;;;;;21.90;60.47;100875.50;4834771;29;20184;-64
2021/07/28 09:19:11;;;;;;;9.35;4.32;;;;;;;21.44;62.29;100884.72;4826198;29;20065;-62
2021/07/28 09:22:06;;;;;;;8.27;4.15;;;;;;;21.44;62.36;100886.56;4831434;29;20434;-61
2021/07/28 09:25:06;;;;;;;8.77;4.00;;;;;;;21.34;64.37;100876.34;4826475;29;20054;-63
2021/07/28 09:27:52;;;;;;;7.53;3.38;;;;;;;21.70;61.73;100882.88;4833216;29;20093;-60
2021/07/28 09:30:37;;;;;;;9.50;3.45;;;;;;;21.60;60.22;100874.53;4828758;29;20490;-63
2021/07/28 09:33:31;;;;;;;6.07;3.38;;;;;;;22.01;60.04;100884.66;4834729;29;20085;-62
2021/07/28 09:36:23;;;;;;;7.00;3.63;;;;;;;21.87;63.03;100875.94;4829792;29;20050;-62
2021/07/28 09:39:27;;;;;;;6.25;4.05;;;;;;;21.76;60.85;100878.50;4834731;29;20118;-62
2021/07/28 09:42:12;;;;;;;7.85;3.45;;;;;;;22.49;58.96;100875.94;4829100;29;20089;-62
2021/07/28 09:44:59;;;;;;;7.68;3.83;;;;;;;22.85;56.44;100876.09;4828700;29;20440;-62
2021/07/28 09:47:53;;;;;;;9.43;3.00;;;;;;;22.09;58.07;100878.19;4827616;29;20066;-62
2021/07/28 09:50:41;;;;;;;6.55;2.97;;;;;;;22.19;57.79;100877.66;4834944;29;20053;-61
2021/07/28 09:53:33;;;;;;;7.13;3.08;;;;;;;23.17;57.49;100881.22;4828395;29;20712;-62
2021/07/28 09:56:28;;;;;;;10.40;3.50;;;;;;;22.15;58.04;100882.66;4834286;29;20054;-65
2021/07/28 09:59:16;;;;;;;5.35;3.10;;;;;;;22.11;60.77;100870.78;4826814;29;20093;-63
2021/07/28 10:02:14;;;;;;;5.43;3.10;;;;;;;22.04;58.70;100870.03;4836578;29;20143;-63
2021/07/28 10:05:03;;;;;;;8.45;3.10;;;;;;;21.69;60.27;100875.91;4829746;29;20066;-63
2021/07/28 10:07:59;;;;;;;7.15;3.15;;;;;;;21.58;60.46;100874.78;4836200;29;20085;-65
2021/07/28 10:10:48;;;;;;;7.97;3.75;;;;;;;21.93;59.79;100871.56;4832797;29;20094;-65
2021/07/28 10:13:37;;;;;;;6.70;3.47;;;;;;;22.16;58.89;100878.94;4833968;29;20085;-64
2021/07/28 10:16:32;;;;;;;4.43;3.05;;;;;;;22.29;59.63;100862.00;4838190;29;20068;-65
2021/07/28 10:19:24;;;;;;;7.38;3.22;;;;;;;23.17;55.75;100857.97;4836958;29;20070;-64
2021/07/28 10:22:12;;;;;;;8.60;3.05;;;;;;;22.75;55.99;100863.25;4832438;29;20058;-63
2021/07/28 10:25:14;;;;;;;6.55;3.05;;;;;;;22.53;57.04;100867.47;4836445;29;20061;-63
2021/07/28 10:27:56;;;;;;;6.93;3.08;;;;;;;23.12;54.27;100865.88;4835004;29;20128;-65
2021/07/28 10:31:00;;;;;;;5.75;2.92;;;;;;;23.44;54.09;100858.38;4836889;29;20927;-65
2021/07/28 10:33:53;;;;;;;9.30;3.00;;;;;;;22.42;56.64;100869.03;4832924;29;20050;-63
2021/07/28 10:36:45;;;;;;;7.88;3.17;;;;;;;22.86;58.41;100864.38;4836043;29;20502;-63
2021/07/28 10:39:35;;;;;;;4.80;2.50;;;;;;;22.56;55.69;100862.50;4828781;29;20058;-63
2021/07/28 10:42:29;;;;;;;5.53;2.75;;;;;;;22.74;56.36;100863.47;4838951;29;20054;-63
2021/07/28 10:45:11;;;;;;;8.23;2.78;;;;;;;23.34;55.13;100846.59;4831994;29;20114;-64
2021/07/28 10:48:30;;;;;;;5.75;2.75;;;;;;;23.65;53.21;100858.84;4821253;29;20087;-63
2021/07/28 10:51:03;;;;;;;7.43;2.92;;;;;;;23.75;53.46;100855.59;4819064;29;20080;-63
2021/07/28 10:53:46;;;;;;;7.18;2.67;;;;;;;23.58;52.27;100845.59;4825879;29;20924;-64
2021/07/28 10:59:54;;;;;;;6.03;2.45;;;;;;;23.32;54.56;100848.69;4834861;29;20425;-63
2021/07/28 11:02:23;;;;;;;6.18;2.80;;;;;;;23.15;54.01;100848.53;4839262;29;20141;-63
2021/07/28 11:08:31;;;;;;;7.28;2.97;;;;;;;23.37;54.05;100846.16;4839338;29;20089;-63
2021/07/28 11:15:16;;;;;;;6.97;3.13;;;;;;;22.73;54.68;100845.81;4839297;29;20048;-64
2021/07/28 11:18:17;;;;;;;5.90;3.05;;;;;;;23.26;53.45;100847.75;4840900;29;20100;-64
2021/07/28 11:21:15;;;;;;;5.07;2.70;;;;;;;23.17;51.59;100849.13;4837863;29;20054;-64
2021/07/28 11:24:06;;;;;;;9.45;2.60;;;;;;;23.42;51.62;100838.22;4834943;29;20077;-64
2021/07/28 11:26:45;;;;;;;5.65;2.78;;;;;;;23.73;53.07;100845.09;4839185;29;20089;-64
2021/07/28 11:29:40;;;;;;;8.65;3.35;;;;;;;24.41;49.29;100843.63;4828419;29;20082;-65
2021/07/28 11:35:49;;;;;;;7.07;3.17;;;;;;;23.42;51.06;100839.06;4840948;29;20634;-65
2021/07/28 11:38:33;;;;;;;9.80;2.70;;;;;;;23.20;52.52;100852.16;4839074;29;20097;-64
2021/07/28 11:41:12;;;;;;;10.18;2.70;;;;;;;22.85;52.91;100858.19;4832348;29;20426;-62
2021/07/28 11:47:23;;;;;;;12.23;3.13;;;;;;;22.69;54.69;100861.50;4838734;29;20128;-64
2021/07/28 11:54:08;;;;;;;7.63;2.92;;;;;;;22.55;53.83;100865.38;4830797;29;20418;-64
2021/07/28 11:56:59;;;;;;;8.80;3.00;;;;;;;22.49;53.40;100872.44;4810748;29;20090;-63
2021/07/28 12:00:16;;;;;;;6.70;2.80;;;;;;;22.50;53.77;100876.72;4819872;29;20062;-63
2021/07/28 12:02:43;;;;;;;;;;;;;;;22.39;54.26;100881.00;4820594;29;20099;-63
2021/07/28 12:05:55;;;;;;;12.95;2.97;;;;;;;22.33;54.41;100870.38;4819761;29;19932;-64
2021/07/28 12:08:29;;;;;;;9.75;2.72;;;;;;;22.85;53.76;100881.44;4818493;29;20063;-65
2021/07/28 12:18:37;;;;;;;8.18;2.80;;;;;;;23.04;52.01;100872.34;4816308;29;20118;-64
2021/07/28 12:21:41;;;;;;;10.43;3.00;;;;;;;22.78;53.25;100878.88;4817488;29;20097;-64
2021/07/28 12:24:08;;;;;;;6.97;2.50;;;;;;;22.64;52.69;100872.03;4812207;29;20058;-64
2021/07/28 12:30:21;;;;;;;9.77;3.05;;;;;;;22.66;53.93;100878.81;4814373;29;20880;-64
2021/07/28 12:33:31;;;;;;;6.72;2.88;;;;;;;23.00;53.67;100876.50;4820103;29;20066;-64
2021/07/28 12:35:57;;;;;;;8.02;3.28;;;;;;;22.93;52.94;100883.78;4809561;29;20605;-64
2021/07/28 12:38:28;;;;;;;6.70;2.70;;;;;;;22.86;53.48;100875.88;4817360;29;20058;-65
2021/07/28 12:41:41;;;;;;;6.88;3.05;;;;;;;22.80;53.36;100879.47;4813646;29;20062;-63
2021/07/28 12:44:45;;;;;;;12.43;3.15;;;;;;;22.50;53.85;100884.75;4819601;29;20058;-63
2021/07/28 12:47:42;;;;;;;7.93;2.83;;;;;;;22.40;53.54;100884.47;4813450;29;20089;-63
2021/07/28 12:50:34;;;;;;;;;;;;;;;22.26;56.52;100897.16;4816872;29;20177;-64
2021/07/28 12:53:03;;;;;;;4.95;2.63;;;;;;;22.49;54.05;100896.50;4815601;29;19973;-64
2021/07/28 12:55:44;;;;;;;6.57;2.67;;;;;;;24.07;50.80;100886.38;4838221;29;20510;-64
2021/07/28 12:58:27;;;;;;;5.93;2.80;;;;;;;23.49;53.05;100879.91;4837637;29;20058;-63
2021/07/28 13:01:31;;;;;;;11.45;3.72;;;;;;;23.14;52.62;100887.06;4833735;29;20157;-64
2021/07/28 13:07:44;;;;;;;8.90;3.35;;;;;;;22.61;52.77;100894.69;4837299;29;20113;-66
2021/07/28 13:10:11;;;;;;;8.20;3.25;;;;;;;22.59;53.06;100898.66;4835277;29;20414;-64
2021/07/28 13:16:19;;;;;;;9.80;3.15;;;;;;;23.63;51.82;100901.13;4835842;29;20129;-65
2021/07/28 13:18:45;;;;;;;8.55;3.42;;;;;;;22.96;53.31;100933.38;4838118;29;20057;-65
2021/07/28 13:21:23;;;;;;;14.07;3.60;;;;;;;22.20;57.00;100935.41;4829429;29;20062;-65
2021/07/28 13:24:18;;;;;;;9.05;3.15;;;;;;;21.60;61.01;100952.78;4836959;29;20460;-65